Time;durP1;ratioP1;P1;durP2;ratioP2;P2;SDS_P1;SDS_P2;PMS_P1;PMS_P2;Temp;Humidity;BMP_temperature;BMP_pressure;BME280_temperature;BME280_humidity;BME280_pressure;Samples;Min_cycle;Max_cycle;Signal;HPM_P1;HPM_P2
2023/10/24 00:01:14;;;;;;;11.20;8.23;;;10.10;99.90;;;;;;4996975;28;20033;-85
2023/10/24 00:03:40;;;;;;;11.73;8.40;;;10.10;99.90;;;;;;4996303;28;20128;-86
2023/10/24 00:06:06;;;;;;;11.90;8.23;;;10.10;99.90;;;;;;4976744;28;20103;-85
2023/10/24 00:08:32;;;;;;;10.20;7.35;;;10.10;99.90;;;;;;5014182;28;20511;-86
2023/10/24 00:11:05;;;;;;;10.85;8.00;;;10.10;99.90;;;;;;4996324;28;20095;-86
2023/10/24 00:13:31;;;;;;;10.40;8.00;;;10.10;99.90;;;;;;4996109;28;20045;-86
2023/10/24 00:16:00;;;;;;;13.00;8.57;;;10.10;99.90;;;;;;4994081;28;20041;-86
2023/10/24 00:18:27;;;;;;;11.30;8.43;;;10.10;99.90;;;;;;5027769;28;20041;-87
2023/10/24 00:20:53;;;;;;;13.10;8.73;;;10.10;99.90;;;;;;5011702;28;20412;-86
2023/10/24 00:23:19;;;;;;;9.63;7.53;;;10.10;99.90;;;;;;5005882;28;20381;-86
2023/10/24 00:25:45;;;;;;;10.57;7.72;;;10.10;99.90;;;;;;4980303;28;20044;-86
2023/10/24 00:28:11;;;;;;;10.18;7.45;;;10.10;99.90;;;;;;4997379;28;20041;-86
2023/10/24 00:30:37;;;;;;;9.68;8.00;;;10.10;99.90;;;;;;4979160;28;20034;-86
2023/10/24 00:33:03;;;;;;;11.23;8.60;;;10.10;99.90;;;;;;4978629;28;20132;-85
2023/10/24 00:35:29;;;;;;;12.30;8.48;;;10.10;99.90;;;;;;5010212;28;20362;-85
2023/10/24 00:37:55;;;;;;;12.13;7.88;;;10.20;99.90;;;;;;5010158;28;20390;-86
2023/10/24 00:40:21;;;;;;;10.48;8.07;;;10.20;99.90;;;;;;4981413;28;20034;-87
2023/10/24 00:42:48;;;;;;;10.80;8.63;;;10.20;99.90;;;;;;4997729;28;20108;-85
2023/10/24 00:45:13;;;;;;;11.35;8.13;;;10.20;99.90;;;;;;4980780;28;20103;-87
2023/10/24 00:47:39;;;;;;;11.93;7.85;;;10.20;99.90;;;;;;4995608;28;20129;-85
2023/10/24 00:50:07;;;;;;;11.52;8.05;;;10.20;99.90;;;;;;4994372;28;20042;-85
2023/10/24 00:52:34;;;;;;;12.48;9.25;;;10.20;99.90;;;;;;4993432;28;20049;-85
2023/10/24 00:55:02;;;;;;;11.95;7.82;;;10.20;99.90;;;;;;4988353;28;20049;-86
2023/10/24 00:57:28;;;;;;;10.98;7.47;;;10.20;99.90;;;;;;4988895;28;20065;-85
2023/10/24 00:59:54;;;;;;;;;;;10.10;99.90;;;;;;4994184;28;20041;-84
2023/10/24 01:02:20;;;;;;;10.48;8.10;;;10.20;99.90;;;;;;5005149;28;19920;-85
2023/10/24 01:04:47;;;;;;;12.93;8.90;;;10.10;99.90;;;;;;4991541;28;20160;-84
2023/10/24 01:07:12;;;;;;;11.35;8.27;;;10.10;99.90;;;;;;4992943;28;20044;-84
2023/10/24 01:09:38;;;;;;;11.77;8.52;;;10.20;99.90;;;;;;5011209;28;20448;-84
2023/10/24 01:12:04;;;;;;;10.75;8.52;;;10.20;99.90;;;;;;4996218;28;20044;-84
2023/10/24 01:14:30;;;;;;;10.07;7.78;;;10.10;99.90;;;;;;4978247;28;20045;-84
2023/10/24 01:16:56;;;;;;;9.00;7.05;;;10.10;99.90;;;;;;5008429;28;20137;-85
2023/10/24 01:19:22;;;;;;;11.57;7.85;;;10.10;99.90;;;;;;4978692;28;20123;-84
2023/10/24 01:21:47;;;;;;;12.48;8.50;;;10.10;99.90;;;;;;5011644;28;20040;-84
2023/10/24 01:24:15;;;;;;;11.73;8.68;;;10.10;99.90;;;;;;4996011;28;20045;-84
2023/10/24 01:26:42;;;;;;;10.63;7.90;;;10.10;99.90;;;;;;4992242;28;20045;-84
2023/10/24 01:29:09;;;;;;;11.30;8.75;;;10.10;99.90;;;;;;5000050;28;20049;-83
2023/10/24 01:31:35;;;;;;;10.52;7.53;;;10.10;99.90;;;;;;4996564;28;20037;-84
2023/10/24 01:34:01;;;;;;;10.10;7.93;;;10.10;99.90;;;;;;5011736;28;20107;-84
2023/10/24 01:36:26;;;;;;;9.48;7.25;;;10.10;99.90;;;;;;5023817;28;20029;-84
2023/10/24 01:38:52;;;;;;;10.32;7.38;;;10.10;99.90;;;;;;4995968;28;20128;-84
2023/10/24 01:41:18;;;;;;;7.90;6.30;;;10.10;99.90;;;;;;4995946;28;20044;-84
2023/10/24 01:43:43;;;;;;;10.98;7.53;;;10.20;99.90;;;;;;4978390;28;20091;-84
2023/10/24 01:46:09;;;;;;;9.82;7.15;;;10.20;99.90;;;;;;4993433;28;20080;-84
2023/10/24 01:48:35;;;;;;;10.48;7.75;;;10.20;99.90;;;;;;5011371;28;20053;-84
2023/10/24 01:51:01;;;;;;;9.43;7.13;;;10.10;99.90;;;;;;4990919;28;20501;-83
2023/10/24 01:53:26;;;;;;;10.15;8.38;;;10.20;99.90;;;;;;5010000;28;20087;-84
2023/10/24 01:55:52;;;;;;;10.48;7.93;;;10.20;99.90;;;;;;4987748;28;20081;-83
2023/10/24 01:58:18;;;;;;;10.32;7.75;;;10.20;99.90;;;;;;4970948;28;20442;-83
2023/10/24 02:00:43;;;;;;;10.63;7.80;;;10.10;99.90;;;;;;4967924;28;20039;-83
2023/10/24 02:03:09;;;;;;;11.55;8.18;;;10.20;99.90;;;;;;4989042;28;20088;-83
2023/10/24 02:05:35;;;;;;;9.30;7.53;;;10.30;99.90;;;;;;4988051;28;20077;-83
2023/10/24 02:08:02;;;;;;;10.68;8.30;;;10.20;99.90;;;;;;4988739;28;21770;-83
2023/10/24 02:10:28;;;;;;;10.20;7.50;;;10.30;99.90;;;;;;4970336;28;20193;-84
2023/10/24 02:12:54;;;;;;;9.00;7.55;;;10.30;99.90;;;;;;4989236;28;20597;-84
2023/10/24 02:15:19;;;;;;;9.13;7.40;;;10.20;99.90;;;;;;4971388;28;20030;-84
2023/10/24 02:17:45;;;;;;;9.35;7.40;;;10.20;99.90;;;;;;4958771;28;20122;-83
2023/10/24 02:20:11;;;;;;;9.85;7.68;;;10.30;99.90;;;;;;4990546;28;20035;-83
2023/10/24 02:22:36;;;;;;;9.68;7.38;;;10.40;99.90;;;;;;4961704;28;20045;-82
2023/10/24 02:25:02;;;;;;;9.60;7.20;;;10.30;99.90;;;;;;4988597;28;20556;-83
2023/10/24 02:27:28;;;;;;;9.55;6.82;;;10.40;99.90;;;;;;4992733;28;20466;-83
2023/10/24 02:29:54;;;;;;;10.80;7.47;;;10.30;99.90;;;;;;4987373;28;20073;-83
2023/10/24 02:32:20;;;;;;;8.88;7.38;;;10.40;99.90;;;;;;4990823;28;20097;-82
2023/10/24 02:34:49;;;;;;;8.18;6.70;;;10.40;99.90;;;;;;4990991;28;20038;-83
2023/10/24 02:37:16;;;;;;;9.65;7.18;;;10.30;99.90;;;;;;4974111;28;20113;-83
2023/10/24 02:39:41;;;;;;;8.25;6.80;;;10.30;99.90;;;;;;4991271;28;20049;-83
2023/10/24 02:42:07;;;;;;;8.05;6.25;;;10.40;99.90;;;;;;4992875;28;20026;-83
2023/10/24 02:44:33;;;;;;;7.60;6.50;;;10.40;99.90;;;;;;4975815;28;20046;-82
2023/10/24 02:46:59;;;;;;;7.63;6.40;;;10.40;99.90;;;;;;4988654;28;20681;-83
2023/10/24 02:49:25;;;;;;;10.15;6.90;;;10.50;99.90;;;;;;4974923;28;20050;-83
2023/10/24 02:51:51;;;;;;;6.78;6.07;;;10.50;99.90;;;;;;4969661;28;20045;-83
2023/10/24 02:54:17;;;;;;;7.15;5.78;;;10.50;99.90;;;;;;4982820;28;20060;-83
2023/10/24 02:56:43;;;;;;;7.35;6.00;;;10.40;99.90;;;;;;5010306;28;20109;-84
2023/10/24 02:59:09;;;;;;;6.55;5.85;;;10.50;99.90;;;;;;4991544;28;20716;-83
2023/10/24 03:01:35;;;;;;;9.90;7.20;;;10.40;99.90;;;;;;4988095;28;20555;-84
2023/10/24 03:04:01;;;;;;;;;;;10.70;99.90;;;;;;4991921;28;20136;-83
2023/10/24 03:06:26;;;;;;;8.00;6.20;;;10.50;99.90;;;;;;4989540;28;19924;-84
2023/10/24 03:08:52;;;;;;;9.10;7.18;;;10.60;99.90;;;;;;5007142;28;20037;-83
2023/10/24 03:11:22;;;;;;;8.60;6.32;;;10.70;99.90;;;;;;5006099;28;20045;-83
2023/10/24 03:13:49;;;;;;;7.72;6.05;;;10.60;99.90;;;;;;5011001;28;20045;-83
2023/10/24 03:16:14;;;;;;;7.32;5.85;;;10.70;99.90;;;;;;5010023;28;20034;-83
2023/10/24 03:18:40;;;;;;;6.75;5.75;;;10.70;99.90;;;;;;5010984;28;20045;-83
2023/10/24 03:21:07;;;;;;;6.88;6.10;;;10.60;99.90;;;;;;5009504;28;20042;-84
2023/10/24 03:23:33;;;;;;;7.00;5.88;;;10.80;99.90;;;;;;4993452;28;20117;-83
2023/10/24 03:26:00;;;;;;;9.25;7.05;;;10.80;99.90;;;;;;4978999;28;20138;-83
2023/10/24 03:28:26;;;;;;;7.35;6.40;;;10.70;99.90;;;;;;5008866;28;20046;-83
2023/10/24 03:31:05;;;;;;;8.13;6.50;;;10.70;99.90;;;;;;4998951;28;20038;-83
2023/10/24 03:33:31;;;;;;;7.45;6.50;;;10.70;99.90;;;;;;4987064;28;20039;-83
2023/10/24 03:35:57;;;;;;;;;;;10.90;99.90;;;;;;5005753;28;20046;-83
2023/10/24 03:38:23;;;;;;;8.75;6.68;;;10.90;99.90;;;;;;5008209;28;20365;-83
2023/10/24 03:40:49;;;;;;;7.88;6.40;;;10.90;99.90;;;;;;5003601;28;20442;-83
2023/10/24 03:43:16;;;;;;;7.97;6.25;;;10.90;99.90;;;;;;4978330;28;20045;-83
2023/10/24 03:45:42;;;;;;;10.50;6.53;;;11.00;99.90;;;;;;5002606;28;20397;-83
2023/10/24 03:48:08;;;;;;;8.77;6.45;;;11.00;99.90;;;;;;4976868;28;20486;-83
2023/10/24 03:50:40;;;;;;;7.00;5.70;;;10.80;99.90;;;;;;5010658;28;20117;-83
2023/10/24 03:53:06;;;;;;;7.90;6.13;;;10.90;99.90;;;;;;5005252;28;20095;-83
2023/10/24 03:55:32;;;;;;;;;;;10.90;99.90;;;;;;5006049;28;20128;-82
2023/10/24 03:57:58;;;;;;;7.07;5.82;;;11.00;99.90;;;;;;5006574;28;19969;-83
2023/10/24 04:00:24;;;;;;;8.20;6.57;;;11.00;99.90;;;;;;4992380;28;20042;-83
2023/10/24 04:02:51;;;;;;;8.25;5.60;;;11.00;99.90;;;;;;5002898;28;20045;-81
2023/10/24 04:05:17;;;;;;;8.38;6.07;;;11.00;99.90;;;;;;5006230;28;20045;-81
2023/10/24 04:07:42;;;;;;;7.13;5.97;;;11.00;99.90;;;;;;5003248;28;20497;-81
2023/10/24 04:10:08;;;;;;;8.02;6.30;;;11.00;99.90;;;;;;5004952;28;20049;-80
2023/10/24 04:12:34;;;;;;;6.10;5.30;;;11.00;99.90;;;;;;4967980;28;20130;-83
2023/10/24 04:15:00;;;;;;;7.07;6.00;;;11.00;99.90;;;;;;4989086;28;20133;-82
2023/10/24 04:17:25;;;;;;;8.63;6.47;;;11.10;99.90;;;;;;5007389;28;20048;-80
2023/10/24 04:19:51;;;;;;;7.30;5.70;;;11.00;99.90;;;;;;5004815;28;20516;-81
2023/10/24 04:22:17;;;;;;;9.52;6.13;;;11.00;99.90;;;;;;4956516;28;20042;-81
2023/10/24 04:24:42;;;;;;;6.72;5.50;;;11.10;99.90;;;;;;4986011;28;20121;-83
2023/10/24 04:27:11;;;;;;;7.95;6.07;;;11.10;99.90;;;;;;5007111;28;20042;-82
2023/10/24 04:29:44;;;;;;;7.53;5.57;;;11.00;99.90;;;;;;4986826;28;20066;-82
2023/10/24 04:32:10;;;;;;;7.07;5.93;;;11.00;99.90;;;;;;5006921;28;20054;-82
2023/10/24 04:34:35;;;;;;;7.18;6.05;;;11.20;99.90;;;;;;4955270;28;20477;-82
2023/10/24 04:37:01;;;;;;;8.75;6.20;;;11.00;99.90;;;;;;5006317;28;20053;-82
2023/10/24 04:39:29;;;;;;;6.65;5.55;;;11.00;99.90;;;;;;5006282;28;20052;-82
2023/10/24 04:41:54;;;;;;;8.88;6.40;;;11.20;99.90;;;;;;5001337;28;20038;-81
2023/10/24 04:44:20;;;;;;;6.93;6.07;;;11.10;99.90;;;;;;5006231;28;20042;-82
2023/10/24 04:46:46;;;;;;;7.57;6.45;;;11.20;99.90;;;;;;4958244;28;20038;-82
2023/10/24 04:49:13;;;;;;;7.18;6.03;;;11.20;99.90;;;;;;4989837;28;20041;-81
2023/10/24 04:51:39;;;;;;;7.07;5.47;;;11.30;99.90;;;;;;5007105;28;20033;-82
2023/10/24 04:54:05;;;;;;;6.80;5.90;;;11.30;99.90;;;;;;5006796;28;20460;-82
2023/10/24 04:56:30;;;;;;;7.20;6.03;;;11.30;99.90;;;;;;5007424;28;20046;-82
2023/10/24 04:58:56;;;;;;;7.18;5.78;;;11.30;99.90;;;;;;4991156;28;20047;-82
2023/10/24 05:01:22;;;;;;;7.93;6.40;;;11.30;99.90;;;;;;4957131;28;20481;-82
2023/10/24 05:03:48;;;;;;;8.25;6.70;;;11.20;99.90;;;;;;4990850;28;20078;-81
2023/10/24 05:06:13;;;;;;;7.22;6.53;;;11.20;99.90;;;;;;4988979;28;20046;-81
2023/10/24 05:08:40;;;;;;;6.75;5.60;;;11.30;99.90;;;;;;4991255;28;20254;-81
2023/10/24 05:11:05;;;;;;;;;;;11.20;99.90;;;;;;4989996;28;20077;-81
2023/10/24 05:13:31;;;;;;;7.15;6.25;;;11.20;99.90;;;;;;4990722;28;20411;-81
2023/10/24 05:15:57;;;;;;;7.35;6.38;;;11.40;99.90;;;;;;5006770;28;20037;-81
2023/10/24 05:18:22;;;;;;;7.88;7.00;;;11.50;99.90;;;;;;4990549;28;20073;-81
2023/10/24 05:20:48;;;;;;;6.18;5.57;;;11.30;99.90;;;;;;4989443;28;20034;-81
2023/10/24 05:23:14;;;;;;;7.38;6.07;;;11.40;99.90;;;;;;4989939;28;20604;-82
2023/10/24 05:25:41;;;;;;;7.78;5.90;;;11.30;99.90;;;;;;4988831;28;20045;-81
2023/10/24 05:28:07;;;;;;;6.82;6.10;;;11.50;99.90;;;;;;5006920;28;20326;-82
2023/10/24 05:30:33;;;;;;;6.22;5.60;;;11.50;99.90;;;;;;5006461;28;20038;-82
2023/10/24 05:32:59;;;;;;;6.47;5.30;;;11.30;99.90;;;;;;4992906;28;20042;-82
2023/10/24 05:35:25;;;;;;;6.70;5.78;;;11.40;99.90;;;;;;4990759;28;20049;-82
2023/10/24 05:37:50;;;;;;;6.78;5.82;;;11.60;99.90;;;;;;5006813;28;20512;-81
2023/10/24 05:40:16;;;;;;;7.40;6.22;;;11.60;99.90;;;;;;4992052;28;20062;-81
2023/10/24 05:42:42;;;;;;;6.20;5.47;;;11.40;99.90;;;;;;4988681;28;20046;-81
2023/10/24 05:45:08;;;;;;;5.78;5.00;;;11.60;99.90;;;;;;4991766;28;20041;-83
2023/10/24 05:47:34;;;;;;;6.20;5.43;;;11.40;99.90;;;;;;4990455;28;20490;-82
2023/10/24 05:50:00;;;;;;;6.30;5.28;;;11.40;99.90;;;;;;4989389;28;20136;-82
2023/10/24 05:52:25;;;;;;;6.25;5.57;;;11.30;99.90;;;;;;5005843;28;20042;-82
2023/10/24 05:54:52;;;;;;;6.20;5.53;;;11.60;99.90;;;;;;5004129;28;20046;-82
2023/10/24 05:57:18;;;;;;;5.50;5.00;;;11.50;99.90;;;;;;4991990;28;20095;-82
2023/10/24 05:59:44;;;;;;;5.68;5.07;;;11.50;99.90;;;;;;5004265;28;20056;-82
2023/10/24 06:02:09;;;;;;;6.50;5.85;;;11.50;99.90;;;;;;4988205;28;23607;-82
2023/10/24 06:04:35;;;;;;;6.40;5.80;;;11.50;99.90;;;;;;4983520;28;20041;-82
2023/10/24 06:07:02;;;;;;;6.35;5.75;;;11.60;99.90;;;;;;4989388;28;20389;-82
2023/10/24 06:09:27;;;;;;;7.63;5.68;;;11.40;99.90;;;;;;5001689;28;20434;-81
2023/10/24 06:11:53;;;;;;;7.03;6.22;;;11.40;99.90;;;;;;4989848;28;20168;-82
2023/10/24 06:14:19;;;;;;;6.15;5.50;;;11.50;99.90;;;;;;4992371;28;20072;-82
2023/10/24 06:16:45;;;;;;;6.93;5.47;;;11.60;99.90;;;;;;4987738;28;20180;-82
2023/10/24 06:19:11;;;;;;;7.10;5.70;;;11.60;99.90;;;;;;5005021;28;20038;-82
2023/10/24 06:21:36;;;;;;;5.93;5.25;;;11.40;99.90;;;;;;4977342;28;20501;-82
2023/10/24 06:24:02;;;;;;;5.75;5.15;;;11.40;99.90;;;;;;4991465;28;20046;-82
2023/10/24 06:26:28;;;;;;;6.95;5.63;;;11.40;99.90;;;;;;4992381;28;20180;-82
2023/10/24 06:28:54;;;;;;;5.68;5.18;;;11.40;99.90;;;;;;5006017;28;20179;-82
2023/10/24 06:31:20;;;;;;;7.07;5.70;;;11.50;99.90;;;;;;5007925;28;20071;-82
2023/10/24 06:33:46;;;;;;;6.50;5.80;;;11.60;99.90;;;;;;4989836;28;20442;-83
2023/10/24 06:36:11;;;;;;;6.68;5.97;;;11.40;99.90;;;;;;5003397;28;20505;-81
2023/10/24 06:38:37;;;;;;;8.48;6.00;;;11.60;99.90;;;;;;5007999;28;20029;-82
2023/10/24 06:41:07;;;;;;;7.45;6.03;;;11.60;99.90;;;;;;5008379;28;20045;-84
2023/10/24 06:43:33;;;;;;;7.00;6.00;;;11.50;99.90;;;;;;5006681;28;20042;-84
2023/10/24 06:45:58;;;;;;;7.55;6.00;;;11.50;99.90;;;;;;5008129;28;20434;-84
2023/10/24 06:48:24;;;;;;;7.30;6.35;;;11.60;99.90;;;;;;5005599;28;20112;-83
2023/10/24 06:51:05;;;;;;;6.63;5.93;;;11.50;99.90;;;;;;4990610;28;20050;-83
2023/10/24 06:53:31;;;;;;;6.35;5.40;;;11.60;99.90;;;;;;4976895;28;20050;-82
2023/10/24 06:56:01;;;;;;;6.30;5.70;;;11.50;99.90;;;;;;4979503;28;20057;-83
2023/10/24 06:58:27;;;;;;;6.60;5.80;;;11.50;99.90;;;;;;4980455;28;20040;-83
2023/10/24 07:00:54;;;;;;;7.30;6.13;;;11.50;99.90;;;;;;4982473;28;20029;-83
2023/10/24 07:03:20;;;;;;;6.90;5.53;;;11.60;99.90;;;;;;5000943;28;20524;-83
2023/10/24 07:05:51;;;;;;;;;;;11.50;99.90;;;;;;5007985;28;20038;-82
2023/10/24 07:08:17;;;;;;;7.43;5.90;;;11.60;99.90;;;;;;4998669;28;19979;-83
2023/10/24 07:10:43;;;;;;;;;;;11.60;99.90;;;;;;5018243;28;20426;-81
2023/10/24 07:13:10;;;;;;;5.80;5.20;;;11.60;99.90;;;;;;5017516;28;19967;-83
2023/10/24 07:15:36;;;;;;;7.07;5.78;;;11.40;99.90;;;;;;5000345;28;20128;-84
2023/10/24 07:18:01;;;;;;;6.03;5.07;;;11.50;99.90;;;;;;4994635;28;20113;-82
2023/10/24 07:20:27;;;;;;;9.45;5.78;;;11.50;99.90;;;;;;4994249;28;20572;-83
2023/10/24 07:22:53;;;;;;;6.13;5.10;;;11.40;99.90;;;;;;5003096;28;20037;-83
2023/10/24 07:25:18;;;;;;;6.45;5.18;;;11.50;99.90;;;;;;5008614;28;20124;-83
2023/10/24 07:27:44;;;;;;;6.95;6.03;;;11.50;99.90;;;;;;4986977;28;20576;-83
2023/10/24 07:30:10;;;;;;;6.80;5.80;;;11.50;99.90;;;;;;5001966;28;20049;-82
2023/10/24 07:32:36;;;;;;;5.72;4.97;;;11.60;99.90;;;;;;5005498;28;20108;-80
2023/10/24 07:35:03;;;;;;;4.85;4.35;;;11.60;99.90;;;;;;5014953;28;20773;-84
2023/10/24 07:37:29;;;;;;;5.55;4.82;;;11.60;99.90;;;;;;5014519;28;20076;-82
2023/10/24 07:39:54;;;;;;;7.03;4.65;;;11.40;99.90;;;;;;4993722;28;20045;-81
2023/10/24 07:42:20;;;;;;;5.45;4.13;;;11.50;99.90;;;;;;4977150;28;20456;-84
2023/10/24 07:44:46;;;;;;;5.78;5.18;;;11.40;99.90;;;;;;4999762;28;20535;-82
2023/10/24 07:47:12;;;;;;;5.88;5.07;;;11.40;99.90;;;;;;4995200;28;20366;-83
2023/10/24 07:49:38;;;;;;;5.53;4.80;;;11.50;99.90;;;;;;5012171;28;20052;-83
2023/10/24 07:52:04;;;;;;;6.28;5.47;;;11.60;99.90;;;;;;4987756;28;20386;-84
2023/10/24 07:54:30;;;;;;;5.13;4.63;;;11.60;99.90;;;;;;4989643;28;20481;-84
2023/10/24 07:56:56;;;;;;;5.88;4.60;;;11.60;99.90;;;;;;4992334;28;20048;-82
2023/10/24 07:59:22;;;;;;;5.65;5.05;;;11.50;99.90;;;;;;5012983;28;20037;-82
2023/10/24 08:01:47;;;;;;;5.20;4.68;;;11.60;99.90;;;;;;4997375;28;20037;-79
2023/10/24 08:04:13;;;;;;;6.43;5.18;;;11.50;99.90;;;;;;5010931;28;20120;-81
2023/10/24 08:06:39;;;;;;;6.40;5.70;;;11.60;99.90;;;;;;4982314;28;20037;-81
2023/10/24 08:09:04;;;;;;;7.13;5.10;;;11.60;99.90;;;;;;5000169;28;20045;-82
2023/10/24 08:11:30;;;;;;;5.78;5.22;;;11.50;99.90;;;;;;5015981;28;20037;-82
2023/10/24 08:13:56;;;;;;;11.05;6.00;;;11.70;99.90;;;;;;5011552;28;20124;-83
2023/10/24 08:16:22;;;;;;;6.43;5.72;;;11.50;99.90;;;;;;4983764;28;20119;-82
2023/10/24 08:18:48;;;;;;;6.70;5.55;;;11.70;99.90;;;;;;4999325;28;20398;-82
2023/10/24 08:21:14;;;;;;;;;;;11.50;99.90;;;;;;4989297;28;20038;-82
2023/10/24 08:23:39;;;;;;;7.55;5.50;;;11.70;99.90;;;;;;4987984;28;19929;-82
2023/10/24 08:26:05;;;;;;;6.97;5.45;;;11.60;99.90;;;;;;4978878;28;20046;-83
2023/10/24 08:28:32;;;;;;;6.32;5.57;;;11.50;99.90;;;;;;4965555;28;20042;-83
2023/10/24 08:30:57;;;;;;;7.00;5.70;;;11.50;99.90;;;;;;4993177;28;20041;-82
2023/10/24 08:33:23;;;;;;;7.55;6.03;;;11.50;99.90;;;;;;5011573;28;20103;-82
2023/10/24 08:35:49;;;;;;;8.75;6.22;;;11.50;99.90;;;;;;5011685;28;20041;-85
2023/10/24 08:38:15;;;;;;;8.52;6.90;;;11.50;99.90;;;;;;4995310;28;20033;-83
2023/10/24 08:40:41;;;;;;;8.02;6.45;;;11.50;99.90;;;;;;5011837;28;20148;-84
2023/10/24 08:43:08;;;;;;;7.68;6.30;;;11.60;99.90;;;;;;4997113;28;20042;-83
2023/10/24 08:45:35;;;;;;;8.00;5.95;;;11.50;99.90;;;;;;4997373;28;20037;-84
2023/10/24 08:48:05;;;;;;;7.93;6.07;;;11.60;99.90;;;;;;4998994;28;20516;-84
2023/10/24 08:50:31;;;;;;;7.50;5.88;;;11.50;99.90;;;;;;4995706;28;20416;-84
2023/10/24 08:52:57;;;;;;;8.93;6.40;;;11.50;99.90;;;;;;4962892;28;20440;-84
2023/10/24 08:55:24;;;;;;;10.00;7.40;;;11.60;99.90;;;;;;5013972;28;20469;-84
2023/10/24 08:57:52;;;;;;;9.13;7.15;;;11.50;99.90;;;;;;5014699;28;20048;-84
2023/10/24 09:00:18;;;;;;;8.07;6.50;;;11.50;99.90;;;;;;5013832;28;20044;-84
2023/10/24 09:02:45;;;;;;;8.23;6.22;;;11.60;99.90;;;;;;4980420;28;20034;-84
2023/10/24 09:05:13;;;;;;;7.93;6.30;;;11.50;99.90;;;;;;4993141;28;20388;-86
2023/10/24 09:07:39;;;;;;;8.07;6.32;;;11.50;99.90;;;;;;5010721;28;20053;-86
2023/10/24 09:10:05;;;;;;;;;;;11.50;99.90;;;;;;5009706;28;20034;-86
2023/10/24 09:12:32;;;;;;;7.63;6.13;;;11.60;99.90;;;;;;5015148;28;20717;-86
2023/10/24 09:14:58;;;;;;;8.05;6.30;;;11.60;99.90;;;;;;4985043;28;20049;-86
2023/10/24 09:17:25;;;;;;;8.25;6.32;;;11.60;99.90;;;;;;4999012;28;20064;-85
2023/10/24 09:19:51;;;;;;;;;;;11.70;99.90;;;;;;4998481;28;20033;-86
2023/10/24 09:22:17;;;;;;;8.68;6.72;;;11.50;99.90;;;;;;5014496;28;19917;-86
2023/10/24 09:24:47;;;;;;;8.15;6.68;;;11.70;99.90;;;;;;5002894;28;20117;-86
2023/10/24 09:27:15;;;;;;;9.73;6.45;;;11.70;99.90;;;;;;5006634;28;20045;-85
2023/10/24 09:29:41;;;;;;;9.07;6.70;;;11.50;99.90;;;;;;5014505;28;20053;-86
2023/10/24 09:32:06;;;;;;;8.40;6.70;;;11.60;99.90;;;;;;4991837;28;20041;-86
2023/10/24 09:34:33;;;;;;;9.52;6.72;;;11.50;99.90;;;;;;4965713;28;20038;-86
2023/10/24 09:37:10;;;;;;;8.82;7.22;;;11.60;99.90;;;;;;5014488;28;20052;-85
2023/10/24 09:39:56;;;;;;;10.40;6.78;;;11.50;99.90;;;;;;4981271;28;20113;-86
2023/10/24 09:42:27;;;;;;;9.63;7.50;;;11.50;99.90;;;;;;4993880;28;20030;-86
2023/10/24 09:44:55;;;;;;;10.00;6.80;;;11.60;99.90;;;;;;4998239;28;20041;-86
2023/10/24 09:47:22;;;;;;;8.15;6.65;;;11.60;99.90;;;;;;5014123;28;20087;-86
2023/10/24 09:49:50;;;;;;;8.50;7.18;;;11.40;99.90;;;;;;5001800;28;20037;-85
2023/10/24 09:52:18;;;;;;;9.57;7.20;;;11.60;99.90;;;;;;5012094;28;20076;-86
2023/10/24 09:54:49;;;;;;;9.50;8.20;;;11.50;99.90;;;;;;4994963;28;20556;-86
2023/10/24 09:57:21;;;;;;;10.75;8.32;;;11.40;99.90;;;;;;4990300;28;20511;-86
2023/10/24 09:59:49;;;;;;;9.88;8.18;;;11.50;99.90;;;;;;5009699;28;20038;-87
2023/10/24 10:02:17;;;;;;;7.78;6.70;;;11.50;99.90;;;;;;4998649;28;20045;-86
2023/10/24 10:04:43;;;;;;;10.43;8.50;;;11.40;99.90;;;;;;4982437;28;20053;-86
2023/10/24 10:07:11;;;;;;;8.82;7.00;;;11.50;99.90;;;;;;4998302;28;20107;-85
2023/10/24 10:09:42;;;;;;;9.82;7.20;;;11.50;99.90;;;;;;4998082;28;20041;-86
2023/10/24 10:12:12;;;;;;;8.70;6.65;;;11.50;99.90;;;;;;4989259;28;20088;-86
2023/10/24 10:15:12;;;;;;;8.50;5.97;;;11.40;99.90;;;;;;5002219;28;20125;-87
2023/10/24 10:17:44;;;;;;;9.00;7.20;;;11.50;99.90;;;;;;5001623;28;20057;-87
2023/10/24 10:21:00;;;;;;;8.52;6.70;;;11.50;99.90;;;;;;4985860;28;20034;-87
2023/10/24 10:23:38;;;;;;;9.07;7.53;;;11.40;99.90;;;;;;4918425;29;20184;-87
2023/10/24 10:26:06;;;;;;;9.02;7.35;;;11.50;99.90;;;;;;4990695;28;20113;-86
2023/10/24 10:28:39;;;;;;;9.10;7.13;;;11.50;99.90;;;;;;5005844;28;20087;-86
2023/10/24 10:31:23;;;;;;;9.73;7.10;;;11.60;99.90;;;;;;5010015;28;20379;-87
2023/10/24 10:33:49;;;;;;;8.50;7.35;;;11.40;99.90;;;;;;5007118;28;20132;-87
2023/10/24 10:36:15;;;;;;;8.85;7.30;;;11.40;99.90;;;;;;4999131;28;20458;-86
2023/10/24 10:38:48;;;;;;;9.20;7.28;;;11.40;99.90;;;;;;4984627;28;20143;-86
2023/10/24 10:41:35;;;;;;;9.50;7.35;;;11.50;99.90;;;;;;5016674;28;20559;-85
2023/10/24 10:44:02;;;;;;;9.83;7.13;;;11.40;99.90;;;;;;5007022;28;20501;-85
2023/10/24 10:46:29;;;;;;;10.02;6.97;;;11.50;99.90;;;;;;5003302;28;20489;-87
2023/10/24 10:49:06;;;;;;;8.52;6.82;;;11.50;99.90;;;;;;5009870;28;20048;-87
2023/10/24 10:51:33;;;;;;;8.55;6.75;;;11.60;99.90;;;;;;4983337;28;20037;-85
2023/10/24 10:54:33;;;;;;;8.93;7.38;;;11.60;99.90;;;;;;5007501;28;20053;-86
2023/10/24 10:57:03;;;;;;;9.30;7.85;;;11.70;99.90;;;;;;4993188;28;20068;-86
2023/10/24 10:59:45;;;;;;;10.50;8.35;;;11.70;99.90;;;;;;5004271;28;20041;-86
2023/10/24 11:02:12;;;;;;;9.10;7.75;;;11.70;99.90;;;;;;5019684;28;20468;-87
2023/10/24 11:04:38;;;;;;;11.10;8.43;;;11.90;99.90;;;;;;5030731;28;20090;-86
2023/10/24 11:07:04;;;;;;;10.65;8.00;;;11.90;99.90;;;;;;4961135;28;20128;-87
2023/10/24 11:09:34;;;;;;;;;;;11.90;99.90;;;;;;5006449;28;20049;-87
2023/10/24 11:12:21;;;;;;;9.98;7.82;;;12.00;99.90;;;;;;5016215;28;19917;-86
2023/10/24 11:15:16;;;;;;;9.45;7.40;;;12.00;99.90;;;;;;5010072;28;20080;-87
2023/10/24 11:17:43;;;;;;;10.43;7.78;;;12.00;99.90;;;;;;5008775;28;20120;-87
2023/10/24 11:20:10;;;;;;;9.25;7.38;;;11.90;99.90;;;;;;5003855;28;20041;-87
2023/10/24 11:22:36;;;;;;;10.38;8.20;;;12.00;99.90;;;;;;5014778;28;20033;-85
2023/10/24 11:25:13;;;;;;;10.15;7.97;;;12.00;99.90;;;;;;4996032;28;20048;-87
2023/10/24 11:27:39;;;;;;;9.55;7.47;;;11.90;99.90;;;;;;5011452;28;20498;-87
2023/10/24 11:30:06;;;;;;;9.98;8.45;;;11.90;99.90;;;;;;4976183;28;20084;-88
2023/10/24 11:32:33;;;;;;;10.82;8.40;;;11.90;99.90;;;;;;5016866;28;20045;-86
2023/10/24 11:34:59;;;;;;;9.77;7.97;;;12.00;99.90;;;;;;4997323;28;20052;-86
2023/10/24 11:37:24;;;;;;;8.93;7.32;;;12.00;99.90;;;;;;4984594;28;20033;-86
2023/10/24 11:39:50;;;;;;;11.40;8.60;;;12.00;99.90;;;;;;4980749;28;20438;-86
2023/10/24 11:42:16;;;;;;;9.48;6.65;;;12.00;99.90;;;;;;4999856;28;20120;-85
2023/10/24 11:44:42;;;;;;;8.75;6.78;;;12.10;99.90;;;;;;4992415;28;20119;-86
2023/10/24 11:47:14;;;;;;;9.10;6.93;;;12.10;99.90;;;;;;4967925;28;20374;-86
2023/10/24 11:49:40;;;;;;;9.40;7.72;;;12.10;99.90;;;;;;4999595;28;20558;-85
2023/10/24 11:52:06;;;;;;;10.07;7.85;;;12.10;99.90;;;;;;5010575;28;20038;-86
2023/10/24 11:54:32;;;;;;;8.57;7.45;;;12.20;99.90;;;;;;4978601;28;20050;-85
2023/10/24 11:56:59;;;;;;;7.60;6.80;;;12.30;99.90;;;;;;5013955;28;20456;-85
2023/10/24 11:59:34;;;;;;;9.05;7.85;;;12.20;99.90;;;;;;5016569;28;20045;-86
2023/10/24 12:02:01;;;;;;;10.38;8.30;;;12.20;99.90;;;;;;5015209;28;20041;-85
2023/10/24 12:04:27;;;;;;;9.52;7.10;;;12.20;99.90;;;;;;5000034;28;20041;-83
2023/10/24 12:07:08;;;;;;;8.88;7.03;;;12.10;99.90;;;;;;4999402;28;20096;-84
2023/10/24 12:09:37;;;;;;;8.95;7.68;;;12.20;99.90;;;;;;5023101;28;20362;-84
2023/10/24 12:12:03;;;;;;;8.65;7.38;;;12.10;99.90;;;;;;4997066;28;20050;-83
2023/10/24 12:14:29;;;;;;;8.15;7.15;;;12.20;99.90;;;;;;4983379;28;20049;-88
2023/10/24 12:16:57;;;;;;;8.38;7.47;;;12.10;99.90;;;;;;5013294;28;20099;-88
2023/10/24 12:19:23;;;;;;;7.88;6.93;;;12.10;99.90;;;;;;4980951;28;20091;-88
2023/10/24 12:21:48;;;;;;;8.10;6.95;;;12.10;99.90;;;;;;4994746;28;20030;-87
2023/10/24 12:24:15;;;;;;;7.57;6.53;;;12.10;99.90;;;;;;4983263;28;20037;-87
2023/10/24 12:26:40;;;;;;;9.32;7.22;;;12.10;99.90;;;;;;4984336;28;20048;-89
2023/10/24 12:29:10;;;;;;;7.90;6.75;;;12.10;99.90;;;;;;4983507;28;20064;-88
2023/10/24 12:31:37;;;;;;;7.75;6.93;;;12.10;99.90;;;;;;4999556;28;20034;-88
2023/10/24 12:34:03;;;;;;;8.27;6.97;;;12.10;99.90;;;;;;4985764;28;20044;-88
2023/10/24 12:36:29;;;;;;;9.70;7.68;;;12.10;99.90;;;;;;4999725;28;20033;-88
2023/10/24 12:38:55;;;;;;;8.82;7.32;;;12.10;99.90;;;;;;5000438;28;20103;-88
2023/10/24 12:41:21;;;;;;;10.25;7.53;;;12.10;99.90;;;;;;4983234;28;20484;-88
2023/10/24 12:43:46;;;;;;;7.57;6.43;;;12.10;99.90;;;;;;5005620;28;20034;-87
2023/10/24 12:46:13;;;;;;;7.63;6.80;;;12.20;99.90;;;;;;4989732;28;20724;-89
2023/10/24 12:48:39;;;;;;;9.65;7.53;;;12.20;99.90;;;;;;4974503;28;20063;-89